Hlavní strana
METAR-TAF:

METAR-TAF

Letiště :

Mohylev, Bělorusko

zeměpisná šířka: 53-57-18N, zeměpisná délka: 030-05-42E, výška: 194 m

Aktuální stav počasí

Zpráva byla vytvořena před 6 hodinami a 40 minutami, v 13:00 UTC
Severní vítr 8 kt
Teplota 23°C
Vlhkost vzduchu 53%
Tlak 1025 hPa
Viditelnost 10 km a více
Oblačno až skoro zataženo ve výšce 4900 ft
Oblačno až skoro zataženo

METAR: UMOO 101300Z 01004MPS 9999 BKN049 BKN/// 23/13 Q1025 NOSIG

Čas: 22:40 (19:40 UTC)

Předpověď počasí

Zpráva byla vytvořena před 8 hodinami a 16 minutami, v 11:24 UTC
Předpověď platná od 10 v 12 UTC do 10 v 21 UTC
Severní vítr 10 kt
Viditelnost 10 km a více
Oblačno až skoro zataženo ve výšce 2500 ft
Dočasný
od 10 v 12 UTC do 10 v 18 UTC
Severoseverovýchodní vítr 10 kt
Viditelnost: 3000 m
Oblačno až skoro zataženo ve výšce 1500 ft, Cumulonimbus.
slabé dešťové přeháňky

TAF: UMOO 101124Z 1012/1021 35005MPS 9999 BKN025 TEMPO 1012/1018 03005MPS 3000 -SHRA BKN015CB

Stav a předpovědi počasí z více než 4 000 letišť (zprávy METAR a TAF).

Červené a žluté tečky na mapě představují dostupné meteorologické stanice.

Když kurzor umístíte na tečku, zobrazí se název stanice.

Pak kliknutím zobrazíte stav a předpověď počasí.

Chcete-li změnit mapu, kliknutím na zelené tlačítko se znaménkem +mapu přiblížíte, kliknutím na zelené tlačítko se znaménkem – mapu oddálíte a kliknutím na zelené šipky přejdete na sousední mapy.


METAR-TAF: